createdAt,value
2022-10-31T00:01:20.081Z,14.32
2022-10-31T00:03:48.526Z,14.60
2022-10-31T00:06:19.006Z,14.27
2022-10-31T00:08:46.871Z,13.13
2022-10-31T00:11:14.704Z,14.50
2022-10-31T00:13:43.801Z,15.43
2022-10-31T00:16:18.068Z,15.50
2022-10-31T00:18:46.107Z,14.98
2022-10-31T00:21:13.756Z,15.60
2022-10-31T00:23:41.441Z,16.48
2022-10-31T00:26:09.299Z,19.48
2022-10-31T00:28:37.000Z,12.00
2022-10-31T00:31:07.899Z,11.83
2022-10-31T00:33:37.577Z,13.80
2022-10-31T00:36:06.165Z,13.73
2022-10-31T00:38:33.864Z,12.90
2022-10-31T00:41:01.561Z,13.90
2022-10-31T00:43:29.206Z,12.65
2022-10-31T00:45:56.880Z,11.53
2022-10-31T00:48:25.967Z,11.32
2022-10-31T00:50:53.591Z,17.27
2022-10-31T00:53:21.336Z,13.98
2022-10-31T00:55:49.049Z,12.13
2022-10-31T00:58:17.034Z,13.02
2022-10-31T01:00:48.068Z,10.98
2022-10-31T01:03:18.621Z,12.05
2022-10-31T01:05:47.679Z,13.57
2022-10-31T01:08:15.320Z,14.63
2022-10-31T01:10:42.929Z,12.37
2022-10-31T01:13:10.608Z,10.65
2022-10-31T01:15:38.283Z,11.93
2022-10-31T01:18:06.082Z,12.20
2022-10-31T01:20:33.760Z,12.60
2022-10-31T01:23:02.835Z,12.82
2022-10-31T01:25:30.503Z,10.60
2022-10-31T01:27:58.433Z,10.55
2022-10-31T01:30:26.442Z,11.02
2022-10-31T01:32:54.109Z,11.10
2022-10-31T01:35:21.741Z,11.20
2022-10-31T01:37:49.390Z,11.40
2022-10-31T01:40:18.573Z,12.73
2022-10-31T01:42:46.221Z,10.57
2022-10-31T01:45:16.000Z,10.20
2022-10-31T01:47:45.810Z,12.95
2022-10-31T01:50:17.946Z,10.70
2022-10-31T01:52:46.976Z,13.48
2022-10-31T01:55:20.185Z,13.77
2022-10-31T01:57:50.693Z,10.60
2022-10-31T02:00:18.967Z,11.48
2022-10-31T02:02:47.423Z,10.45
2022-10-31T02:05:18.850Z,12.65
2022-10-31T02:07:51.351Z,12.60
2022-10-31T02:10:21.427Z,11.10
2022-10-31T02:12:49.411Z,10.77
2022-10-31T02:15:17.209Z,12.40
2022-10-31T02:17:44.961Z,12.65
2022-10-31T02:20:17.375Z,13.68
2022-10-31T02:23:24.091Z,11.23
2022-10-31T02:26:20.570Z,11.55
2022-10-31T02:29:05.309Z,9.88
2022-10-31T02:31:37.389Z,9.85
2022-10-31T02:34:11.472Z,10.85
2022-10-31T02:36:44.602Z,11.77
2022-10-31T02:39:16.294Z,13.53
2022-10-31T02:41:49.338Z,11.35
2022-10-31T02:44:22.501Z,12.45
2022-10-31T02:46:54.474Z,12.95
2022-10-31T02:49:26.514Z,11.70
2022-10-31T02:51:54.494Z,10.73
2022-10-31T02:54:24.798Z,10.63
2022-10-31T02:56:54.842Z,11.25
2022-10-31T02:59:23.106Z,12.20
2022-10-31T03:02:23.111Z,13.80
2022-10-31T03:05:11.518Z,10.70
2022-10-31T03:07:44.714Z,10.95
2022-10-31T03:10:18.610Z,12.70
2022-10-31T03:12:52.217Z,10.50
2022-10-31T03:15:23.308Z,10.65
2022-10-31T03:17:59.635Z,9.77
2022-10-31T03:20:31.821Z,11.97
2022-10-31T03:23:00.352Z,9.82
2022-10-31T03:25:28.279Z,10.25
2022-10-31T03:27:56.584Z,11.00
2022-10-31T03:30:24.395Z,10.55
2022-10-31T03:32:55.695Z,11.30
2022-10-31T03:35:25.408Z,10.32
2022-10-31T03:37:54.447Z,10.20
2022-10-31T03:40:23.857Z,9.82
2022-10-31T03:42:55.106Z,10.02
2022-10-31T03:45:25.545Z,11.02
2022-10-31T03:47:55.185Z,11.10
2022-10-31T03:50:23.740Z,10.48
2022-10-31T03:52:57.187Z,12.52
2022-10-31T03:55:28.655Z,9.93
2022-10-31T03:58:01.593Z,11.23
2022-10-31T04:00:29.658Z,11.13
2022-10-31T04:03:02.620Z,9.52
2022-10-31T04:05:31.637Z,9.38
2022-10-31T04:08:00.869Z,9.55
2022-10-31T04:10:32.927Z,8.52
2022-10-31T04:13:05.235Z,9.45
2022-10-31T04:15:33.398Z,8.20
2022-10-31T04:18:03.565Z,8.48
2022-10-31T04:20:32.301Z,9.63
2022-10-31T04:22:59.964Z,9.32
2022-10-31T04:25:27.625Z,8.50
2022-10-31T04:27:55.494Z,9.95
2022-10-31T04:30:23.259Z,9.05
2022-10-31T04:32:50.903Z,9.25
2022-10-31T04:35:19.939Z,11.32
2022-10-31T04:37:47.643Z,9.55
2022-10-31T04:40:15.425Z,9.77
2022-10-31T04:42:43.035Z,10.30
2022-10-31T04:45:14.286Z,10.40
2022-10-31T04:47:44.523Z,11.48
2022-10-31T04:50:12.174Z,9.05
2022-10-31T04:52:42.554Z,9.15
2022-10-31T04:55:10.868Z,9.82
2022-10-31T04:57:42.701Z,9.43
2022-10-31T05:00:11.545Z,9.32
2022-10-31T05:02:45.402Z,9.02
2022-10-31T05:05:13.675Z,9.50
2022-10-31T05:07:44.056Z,9.27
2022-10-31T05:10:12.550Z,10.25
2022-10-31T05:12:40.572Z,11.23
2022-10-31T05:15:08.895Z,10.20
2022-10-31T05:17:36.563Z,9.85
2022-10-31T05:20:04.432Z,10.82
2022-10-31T05:22:32.032Z,10.18
2022-10-31T05:25:01.130Z,10.10
2022-10-31T05:27:28.748Z,10.30
2022-10-31T05:29:56.398Z,10.48
2022-10-31T05:32:24.174Z,10.30
2022-10-31T05:34:51.791Z,10.23
2022-10-31T05:37:19.429Z,11.63
2022-10-31T05:39:47.099Z,9.90
2022-10-31T05:42:16.137Z,9.45
2022-10-31T05:44:43.823Z,9.82
2022-10-31T05:47:11.562Z,11.23
2022-10-31T05:49:39.224Z,10.25
2022-10-31T05:52:06.903Z,10.63
2022-10-31T05:54:34.609Z,9.23
2022-10-31T05:57:02.285Z,9.02
2022-10-31T05:59:31.327Z,9.70
2022-10-31T06:01:59.016Z,11.25
2022-10-31T06:04:26.680Z,11.75
2022-10-31T06:06:54.382Z,10.05
2022-10-31T06:09:22.122Z,11.43
2022-10-31T06:11:49.768Z,9.95
2022-10-31T06:14:17.399Z,11.88
2022-10-31T06:16:46.479Z,13.97
2022-10-31T06:19:14.194Z,13.43
2022-10-31T06:21:41.810Z,16.98
2022-10-31T06:24:09.671Z,12.82
2022-10-31T06:26:37.317Z,12.02
2022-10-31T06:29:05.117Z,13.73
2022-10-31T06:31:32.795Z,13.02
2022-10-31T06:34:01.840Z,11.80
2022-10-31T06:36:29.534Z,13.07
2022-10-31T06:38:57.197Z,12.50
2022-10-31T06:41:24.874Z,10.90
2022-10-31T06:43:52.506Z,12.05
2022-10-31T06:46:20.286Z,12.10
2022-10-31T06:48:47.911Z,11.48
2022-10-31T06:51:16.956Z,13.82
2022-10-31T06:53:44.635Z,12.32
2022-10-31T06:56:12.271Z,12.00
2022-10-31T06:58:39.967Z,12.02
2022-10-31T07:01:08.027Z,12.83
2022-10-31T07:03:35.852Z,12.67
2022-10-31T07:06:03.513Z,12.35
2022-10-31T07:08:32.571Z,12.25
2022-10-31T07:11:00.287Z,13.82
2022-10-31T07:13:27.998Z,13.35
2022-10-31T07:16:00.917Z,15.52
2022-10-31T07:18:28.589Z,12.90
2022-10-31T07:20:56.599Z,13.60
2022-10-31T07:23:24.362Z,13.48
2022-10-31T07:25:58.080Z,13.98
2022-10-31T07:28:25.884Z,14.37
2022-10-31T07:30:54.858Z,13.75
2022-10-31T07:33:22.777Z,13.13
2022-10-31T07:35:50.530Z,13.30
2022-10-31T07:38:18.153Z,14.02
2022-10-31T07:40:45.846Z,13.00
2022-10-31T07:43:14.988Z,12.93
2022-10-31T07:45:42.869Z,13.43
2022-10-31T07:48:10.581Z,13.90
2022-10-31T07:50:38.334Z,18.08
2022-10-31T07:53:08.824Z,14.05
2022-10-31T07:55:37.079Z,15.70
2022-10-31T07:58:06.053Z,16.33
2022-10-31T08:00:36.372Z,15.38
2022-10-31T08:03:05.731Z,15.32
2022-10-31T08:05:33.893Z,15.90
2022-10-31T08:08:02.114Z,15.70
2022-10-31T08:10:30.249Z,16.10
2022-10-31T08:12:59.429Z,15.23
2022-10-31T08:15:27.647Z,17.45
2022-10-31T08:17:56.733Z,16.92
2022-10-31T08:20:24.501Z,16.63
2022-10-31T08:22:56.865Z,17.17
2022-10-31T08:25:24.798Z,17.80
2022-10-31T08:27:53.462Z,18.75
2022-10-31T08:30:21.614Z,19.13
2022-10-31T08:32:49.723Z,17.67
2022-10-31T08:35:18.903Z,19.97
2022-10-31T08:37:46.520Z,21.27
2022-10-31T08:40:14.260Z,18.58
2022-10-31T08:42:41.929Z,19.83
2022-10-31T08:45:10.256Z,20.05
2022-10-31T08:47:37.919Z,20.48
2022-10-31T08:50:06.131Z,20.63
2022-10-31T08:53:03.029Z,20.38
2022-10-31T08:55:23.058Z,22.35
2022-10-31T08:57:50.743Z,18.60
2022-10-31T09:00:18.678Z,17.77
2022-10-31T09:02:46.315Z,16.58
2022-10-31T09:05:14.067Z,17.83
2022-10-31T09:07:43.135Z,18.05
2022-10-31T09:10:10.989Z,18.35
2022-10-31T09:12:38.630Z,18.98
2022-10-31T09:15:07.455Z,18.30
2022-10-31T09:17:35.197Z,15.77
2022-10-31T09:20:02.846Z,16.23
2022-10-31T09:22:30.528Z,15.60
2022-10-31T09:24:59.578Z,15.48
2022-10-31T09:27:27.196Z,13.67
2022-10-31T09:29:54.878Z,15.32
2022-10-31T09:32:22.505Z,15.05
2022-10-31T09:34:50.106Z,14.85
2022-10-31T09:37:17.734Z,16.40
2022-10-31T09:39:45.398Z,14.03
2022-10-31T09:42:54.446Z,13.10
2022-10-31T09:45:28.661Z,13.05
2022-10-31T09:48:19.651Z,11.60
2022-10-31T09:50:49.993Z,11.88
2022-10-31T09:53:25.399Z,11.73
2022-10-31T09:55:53.457Z,11.23
2022-10-31T09:58:22.879Z,10.82
2022-10-31T10:00:51.995Z,10.87
2022-10-31T10:03:29.327Z,9.07
2022-10-31T10:06:03.576Z,10.52
2022-10-31T10:08:33.624Z,9.25
2022-10-31T10:11:10.909Z,9.13
2022-10-31T10:13:47.536Z,9.52
2022-10-31T10:16:24.630Z,7.83
2022-10-31T10:19:02.524Z,9.23
2022-10-31T10:21:39.641Z,8.32
2022-10-31T10:24:18.232Z,7.93
2022-10-31T10:26:52.073Z,7.93
2022-10-31T10:29:32.421Z,7.72
2022-10-31T10:32:04.047Z,8.95
2022-10-31T10:34:35.845Z,10.82
2022-10-31T10:37:06.512Z,7.32
2022-10-31T10:39:40.223Z,9.60
2022-10-31T10:42:29.495Z,7.80
2022-10-31T10:45:14.701Z,9.55
2022-10-31T10:47:44.975Z,10.38
2022-10-31T10:50:16.710Z,10.20
2022-10-31T10:52:51.047Z,8.13
2022-10-31T10:55:27.336Z,7.93
2022-10-31T10:57:59.022Z,8.20
2022-10-31T11:00:28.541Z,8.15
2022-10-31T11:02:57.856Z,8.87
2022-10-31T11:05:28.525Z,9.23
2022-10-31T11:07:56.224Z,9.25
2022-10-31T11:10:24.218Z,10.85
2022-10-31T11:13:05.387Z,10.57
2022-10-31T11:15:37.584Z,11.25
2022-10-31T11:18:07.241Z,11.18
2022-10-31T11:20:37.013Z,10.18
2022-10-31T11:23:16.365Z,10.02
2022-10-31T11:25:50.675Z,10.50
2022-10-31T11:28:18.390Z,10.10
2022-10-31T11:32:20.329Z,9.35
2022-10-31T11:34:51.519Z,10.27
2022-10-31T11:37:22.355Z,12.02
2022-10-31T11:39:54.425Z,10.60
2022-10-31T11:42:24.354Z,12.65
2022-10-31T11:46:17.327Z,14.37
2022-10-31T11:48:49.021Z,13.07
2022-10-31T11:51:22.836Z,13.73
2022-10-31T11:53:56.902Z,14.93
2022-10-31T11:56:28.282Z,11.27
2022-10-31T11:58:59.934Z,14.45
2022-10-31T12:01:30.294Z,15.27
2022-10-31T12:04:06.199Z,12.40
2022-10-31T12:06:36.049Z,10.32
2022-10-31T12:09:03.756Z,14.68
2022-10-31T12:11:44.569Z,11.63
2022-10-31T12:14:22.563Z,10.32
2022-10-31T12:16:55.878Z,11.93
2022-10-31T12:19:32.722Z,10.73
2022-10-31T12:22:18.050Z,10.52
2022-10-31T12:25:04.787Z,10.60
2022-10-31T12:27:40.128Z,10.52
2022-10-31T12:30:17.425Z,10.23
2022-10-31T12:33:06.043Z,10.70
2022-10-31T12:35:43.281Z,9.07
2022-10-31T12:38:38.579Z,9.05
2022-10-31T12:41:18.872Z,10.40
2022-10-31T12:43:49.456Z,11.52
2022-10-31T12:46:26.755Z,10.00
2022-10-31T12:49:08.070Z,13.88
2022-10-31T12:51:42.284Z,12.35
2022-10-31T12:54:54.425Z,11.63
2022-10-31T12:57:26.467Z,15.27
2022-10-31T12:59:56.984Z,11.07
2022-10-31T13:02:29.107Z,13.52
2022-10-31T13:04:59.856Z,14.93
2022-10-31T13:07:30.961Z,13.90
2022-10-31T13:10:02.355Z,15.38
2022-10-31T13:12:34.712Z,14.90
2022-10-31T13:15:07.334Z,16.85
2022-10-31T13:17:37.272Z,18.75
2022-10-31T13:20:19.898Z,17.23
2022-10-31T13:22:49.808Z,19.23
2022-10-31T13:25:19.498Z,17.10
2022-10-31T13:27:51.460Z,20.83
2022-10-31T13:30:21.120Z,18.80
2022-10-31T13:32:52.076Z,17.38
2022-10-31T13:35:27.544Z,21.08
2022-10-31T13:38:04.612Z,22.23
2022-10-31T13:40:37.818Z,23.17
2022-10-31T13:43:12.107Z,21.23
2022-10-31T13:45:50.088Z,24.37
2022-10-31T13:48:35.201Z,24.05
2022-10-31T13:51:07.208Z,23.27
2022-10-31T13:53:41.122Z,23.08
2022-10-31T13:56:21.120Z,23.87
2022-10-31T13:59:20.736Z,22.38
2022-10-31T14:01:50.852Z,23.43
2022-10-31T14:04:24.959Z,22.02
2022-10-31T14:07:00.163Z,23.33
2022-10-31T14:09:31.522Z,23.83
2022-10-31T14:12:01.740Z,23.63
2022-10-31T14:14:34.443Z,22.60
2022-10-31T14:17:02.604Z,26.40
2022-10-31T14:19:30.246Z,23.95
2022-10-31T14:21:59.285Z,24.05
2022-10-31T14:24:38.380Z,27.13
2022-10-31T14:27:37.154Z,23.88
2022-10-31T14:30:26.041Z,24.40
2022-10-31T14:32:55.724Z,24.10
2022-10-31T14:35:27.819Z,24.38
2022-10-31T14:38:06.872Z,26.43
2022-10-31T14:40:41.854Z,27.98
2022-10-31T14:43:33.225Z,27.60
2022-10-31T14:46:03.398Z,26.00
2022-10-31T14:48:55.750Z,25.40
2022-10-31T14:51:24.749Z,25.40
2022-10-31T14:53:55.499Z,23.10
2022-10-31T14:56:27.321Z,25.23
2022-10-31T14:58:56.338Z,23.15
2022-10-31T15:01:27.592Z,23.20
2022-10-31T15:04:21.967Z,24.97
2022-10-31T15:06:46.741Z,22.63
2022-10-31T15:09:27.228Z,25.63
2022-10-31T15:11:54.972Z,27.33
2022-10-31T15:14:25.989Z,25.65
2022-10-31T15:16:54.055Z,23.77
2022-10-31T15:19:25.531Z,25.00
2022-10-31T15:21:54.939Z,25.87
2022-10-31T15:24:22.805Z,24.88
2022-10-31T15:26:53.715Z,26.02
2022-10-31T15:29:23.607Z,27.00
2022-10-31T15:31:52.600Z,23.65
2022-10-31T15:34:23.738Z,25.65
2022-10-31T15:36:51.467Z,26.30
2022-10-31T15:39:19.612Z,23.88
2022-10-31T15:41:54.767Z,26.53
2022-10-31T15:44:25.619Z,25.67
2022-10-31T15:46:57.653Z,23.77
2022-10-31T15:49:35.401Z,25.10
2022-10-31T15:52:08.561Z,27.20
2022-10-31T15:54:37.100Z,25.45
2022-10-31T15:57:06.200Z,24.08
2022-10-31T15:59:33.947Z,23.98
2022-10-31T16:02:03.595Z,25.33
2022-10-31T16:04:31.639Z,23.35
2022-10-31T16:07:04.390Z,23.08
2022-10-31T16:09:31.994Z,27.92
2022-10-31T16:12:00.452Z,29.17
2022-10-31T16:14:31.482Z,29.92
2022-10-31T16:17:00.080Z,25.38
2022-10-31T16:19:30.321Z,27.05
2022-10-31T16:22:05.134Z,28.73
2022-10-31T16:24:34.031Z,26.47
2022-10-31T16:27:05.901Z,26.63
2022-10-31T16:35:49.248Z,30.50
2022-10-31T16:38:17.115Z,26.50
2022-10-31T16:40:45.432Z,29.23
2022-10-31T16:43:14.577Z,28.65
2022-10-31T16:45:44.994Z,27.23
2022-10-31T16:48:15.804Z,30.55
2022-10-31T16:50:43.676Z,31.48
2022-10-31T16:53:15.558Z,29.40
2022-10-31T16:55:47.208Z,28.52
2022-10-31T16:58:18.701Z,31.50
2022-10-31T17:00:46.514Z,31.10
2022-10-31T17:03:14.151Z,30.65
2022-10-31T17:05:42.002Z,31.25
2022-10-31T17:08:09.655Z,28.30
2022-10-31T17:10:39.021Z,31.08
2022-10-31T17:13:08.450Z,33.70
2022-10-31T17:15:41.053Z,28.33
2022-10-31T17:20:32.643Z,31.63
2022-10-31T17:23:00.944Z,31.00
2022-10-31T17:25:31.802Z,30.60
2022-10-31T17:27:59.975Z,31.05
2022-10-31T17:30:27.597Z,30.83
2022-10-31T17:32:55.564Z,29.42
2022-10-31T17:35:23.942Z,31.13
2022-10-31T17:37:53.026Z,29.70
2022-10-31T17:40:22.904Z,31.77
2022-10-31T17:42:51.439Z,31.87
2022-10-31T17:45:19.116Z,26.67
2022-10-31T17:47:48.070Z,32.83
2022-10-31T17:50:15.968Z,32.30
2022-10-31T17:52:43.681Z,28.50
2022-10-31T17:55:12.805Z,25.95
2022-10-31T17:57:40.800Z,29.27
2022-10-31T18:00:10.521Z,30.05
2022-10-31T18:02:38.335Z,28.75
2022-10-31T18:05:06.967Z,27.75
2022-10-31T18:07:34.982Z,29.03
2022-10-31T18:10:02.928Z,28.58
2022-10-31T18:12:32.377Z,29.35
2022-10-31T18:15:00.240Z,26.65
2022-10-31T18:17:27.879Z,30.25
2022-10-31T18:19:55.677Z,29.00
2022-10-31T18:22:23.375Z,29.40
2022-10-31T18:24:50.957Z,28.80
2022-10-31T18:27:18.561Z,30.42
2022-10-31T18:29:47.587Z,27.95
2022-10-31T18:32:15.219Z,30.48
2022-10-31T18:34:42.870Z,25.90
2022-10-31T18:37:10.567Z,26.90
2022-10-31T18:39:38.172Z,26.73
2022-10-31T18:42:05.890Z,27.13
2022-10-31T18:44:34.301Z,29.40
2022-10-31T18:47:03.359Z,25.93
2022-10-31T18:49:32.818Z,24.77
2022-10-31T18:52:00.798Z,26.20
2022-10-31T18:54:28.520Z,26.85
2022-10-31T18:56:56.685Z,25.13
2022-10-31T18:59:24.339Z,25.58
2022-10-31T19:01:52.078Z,24.85
2022-10-31T19:04:21.229Z,28.52
2022-10-31T19:06:48.959Z,24.85
2022-10-31T19:09:16.579Z,24.02
2022-10-31T19:11:44.199Z,29.50
2022-10-31T19:14:13.716Z,23.92
2022-10-31T19:16:41.728Z,24.03
2022-10-31T19:19:10.684Z,23.65
2022-10-31T19:21:39.705Z,20.67
2022-10-31T19:24:07.509Z,23.52
2022-10-31T19:26:35.370Z,25.33
2022-10-31T19:29:03.066Z,24.65
2022-10-31T19:31:30.807Z,21.42
2022-10-31T19:33:58.470Z,20.67
2022-10-31T19:36:26.751Z,26.45
2022-10-31T19:38:55.800Z,20.75
2022-10-31T19:41:26.238Z,20.85
2022-10-31T19:43:54.479Z,22.73
2022-10-31T19:46:47.851Z,18.90
2022-10-31T19:49:11.416Z,20.48
2022-10-31T19:51:39.082Z,22.63
2022-10-31T19:54:08.395Z,20.98
2022-10-31T19:56:36.029Z,22.67
2022-10-31T19:59:04.032Z,20.03
2022-10-31T20:01:31.737Z,23.90
2022-10-31T20:03:59.448Z,23.90
2022-10-31T20:06:28.831Z,21.88
2022-10-31T20:08:57.214Z,19.98
2022-10-31T20:11:27.704Z,18.57
2022-10-31T20:13:56.280Z,19.23
2022-10-31T20:16:24.383Z,19.70
2022-10-31T20:18:52.272Z,22.27
2022-10-31T20:21:22.200Z,21.73
2022-10-31T20:23:49.928Z,21.10
2022-10-31T20:26:20.676Z,21.77
2022-10-31T20:28:49.684Z,21.20
2022-10-31T20:31:19.388Z,19.50
2022-10-31T20:33:47.240Z,17.83
2022-10-31T20:36:14.971Z,17.00
2022-10-31T20:38:43.290Z,19.20
2022-10-31T20:41:11.915Z,21.33
2022-10-31T20:43:39.636Z,17.58
2022-10-31T20:46:11.590Z,19.63
2022-10-31T20:48:39.409Z,18.23
2022-10-31T20:51:08.804Z,18.60
2022-10-31T20:53:36.538Z,21.52
2022-10-31T20:56:07.469Z,17.63
2022-10-31T20:58:36.126Z,19.05
2022-10-31T21:01:04.285Z,19.33
2022-10-31T21:03:36.418Z,24.20
2022-10-31T21:06:06.745Z,21.42
2022-10-31T21:08:34.612Z,18.35
2022-10-31T21:11:05.943Z,16.88
2022-10-31T21:13:40.525Z,16.83
2022-10-31T21:16:10.760Z,16.35
2022-10-31T21:18:41.199Z,18.08
2022-10-31T21:21:09.676Z,16.53
2022-10-31T21:23:37.401Z,17.88
2022-10-31T21:26:08.342Z,18.20
2022-10-31T21:28:36.145Z,17.23
2022-10-31T21:31:07.673Z,20.92
2022-10-31T21:33:35.583Z,15.70
2022-10-31T21:36:05.775Z,16.33
2022-10-31T21:38:34.195Z,16.98
2022-10-31T21:41:02.328Z,15.60
2022-10-31T21:43:30.331Z,17.08
2022-10-31T21:46:03.514Z,16.17
2022-10-31T21:48:31.192Z,15.52
2022-10-31T21:50:58.834Z,15.93
2022-10-31T21:53:45.553Z,14.77
2022-10-31T21:56:13.214Z,15.23
2022-10-31T21:58:40.880Z,14.18
2022-10-31T22:01:08.724Z,12.88
2022-10-31T22:03:36.915Z,14.00
2022-10-31T22:06:04.834Z,11.98
2022-10-31T22:08:34.293Z,12.43
2022-10-31T22:11:03.007Z,9.97
2022-10-31T22:13:31.379Z,12.50
2022-10-31T22:16:01.628Z,10.32
2022-10-31T22:18:29.661Z,12.07
2022-10-31T22:21:02.314Z,9.85
2022-10-31T22:23:30.859Z,11.65
2022-10-31T22:26:03.585Z,9.70
2022-10-31T22:28:31.546Z,12.13
2022-10-31T22:30:59.498Z,10.88
2022-10-31T22:33:27.198Z,10.98
2022-10-31T22:35:54.900Z,11.00
2022-10-31T22:38:22.538Z,10.13
2022-10-31T22:40:50.225Z,8.75
2022-10-31T22:43:19.273Z,7.32
2022-10-31T22:45:54.911Z,10.05
2022-10-31T22:48:22.608Z,6.43
2022-10-31T22:50:50.235Z,7.70
2022-10-31T22:53:17.843Z,8.43
2022-10-31T22:55:45.668Z,10.95
2022-10-31T22:58:13.861Z,7.77
2022-10-31T23:00:43.093Z,7.50
2022-10-31T23:03:10.776Z,7.30
2022-10-31T23:05:38.423Z,8.07
2022-10-31T23:08:06.599Z,9.55
2022-10-31T23:10:35.733Z,7.88
2022-10-31T23:13:20.993Z,6.65
2022-10-31T23:15:49.991Z,8.02
2022-10-31T23:18:36.628Z,7.72
2022-10-31T23:21:06.485Z,8.52
2022-10-31T23:23:35.298Z,7.80
2022-10-31T23:26:20.671Z,8.70
2022-10-31T23:28:48.266Z,8.93
2022-10-31T23:31:17.512Z,8.10
2022-10-31T23:33:45.199Z,8.18
2022-10-31T23:36:12.850Z,8.10
2022-10-31T23:38:40.489Z,7.55
2022-10-31T23:41:08.118Z,7.57
2022-10-31T23:43:35.779Z,6.32
2022-10-31T23:46:03.421Z,7.85
2022-10-31T23:48:32.452Z,10.23
2022-10-31T23:51:00.077Z,7.83
2022-10-31T23:53:27.742Z,5.30
2022-10-31T23:55:55.879Z,7.00
2022-10-31T23:58:23.562Z,7.35
